Time;durP1;ratioP1;P1;durP2;ratioP2;P2;SDS_P1;SDS_P2;PMS_P1;PMS_P2;Temp;Humidity;BMP_temperature;BMP_pressure;BME280_temperature;BME280_humidity;BME280_pressure;Samples;Min_cycle;Max_cycle;Signal;HPM_P1;HPM_P2
2022/11/05 00:10:25;;;;;;;27.20;15.70;;;;;;;18.38;47.07;100441.98;101988;1327;60534;-82
2022/11/05 00:18:20;;;;;;;20.10;14.20;;;;;;;18.37;47.17;100445.75;102069;1319;60394;-82
2022/11/05 00:20:46;;;;;;;23.30;14.70;;;;;;;18.38;47.13;100451.23;101952;1327;60522;-83
2022/11/05 00:25:56;;;;;;;23.60;14.40;;;;;;;18.38;47.15;100451.81;101937;1323;74731;-82
2022/11/05 00:28:22;;;;;;;21.50;14.50;;;;;;;18.38;47.16;100443.38;102007;1329;60434;-83
2022/11/05 00:30:48;;;;;;;22.10;13.60;;;;;;;18.38;47.03;100443.57;102013;1330;60500;-82
2022/11/05 00:33:14;;;;;;;25.90;15.80;;;;;;;18.38;47.17;100445.34;102021;1324;60473;-82
2022/11/05 00:35:39;;;;;;;22.00;14.00;;;;;;;18.39;47.13;100449.77;101930;1326;60611;-82
2022/11/05 00:38:05;;;;;;;20.50;14.80;;;;;;;18.38;47.16;100453.02;101958;1326;60521;-82
2022/11/05 00:40:30;;;;;;;22.40;14.40;;;;;;;18.39;47.04;100458.32;101952;1330;60508;-83
2022/11/05 00:45:41;;;;;;;22.60;14.50;;;;;;;18.38;47.17;100460.48;101944;1326;73893;-82
2022/11/05 00:50:51;;;;;;;23.70;15.30;;;;;;;18.38;47.23;100456.42;101999;1323;60495;-82
2022/11/05 00:53:17;;;;;;;22.30;15.70;;;;;;;18.37;47.13;100455.70;101968;1329;60582;-82
2022/11/05 00:55:43;;;;;;;22.80;15.20;;;;;;;18.38;47.26;100459.80;101950;1332;60520;-82
2022/11/05 00:58:17;;;;;;;19.90;13.20;;;;;;;18.38;47.27;100457.47;101925;1336;60910;-83
2022/11/05 01:00:44;;;;;;;24.00;15.30;;;;;;;18.38;47.19;100448.92;101997;1332;61268;-82
2022/11/05 01:03:12;;;;;;;21.40;13.80;;;;;;;18.38;47.31;100445.52;101975;1329;61082;-82
2022/11/05 01:05:43;;;;;;;20.80;14.80;;;;;;;18.37;47.30;100439.18;101959;1334;72474;-82
2022/11/05 01:08:09;;;;;;;22.40;15.40;;;;;;;18.38;47.29;100444.11;101906;1328;74895;-81
2022/11/05 01:10:39;;;;;;;24.60;14.90;;;;;;;18.37;47.11;100442.19;102052;1329;60467;-83
2022/11/05 01:13:05;;;;;;;21.60;14.10;;;;;;;18.37;47.36;100440.58;101995;1329;60477;-83
2022/11/05 01:15:30;;;;;;;23.20;14.30;;;;;;;18.38;47.31;100437.00;101912;1332;60611;-82
2022/11/05 01:17:56;;;;;;;22.30;15.30;;;;;;;18.37;47.36;100432.59;101950;1326;60490;-82
2022/11/05 01:20:22;;;;;;;20.60;15.00;;;;;;;18.37;47.38;100428.12;101953;1329;60669;-82
2022/11/05 01:22:47;;;;;;;24.40;15.50;;;;;;;18.37;47.33;100416.91;101974;1334;60425;-82
2022/11/05 01:25:13;;;;;;;22.30;15.30;;;;;;;18.37;47.25;100417.60;101909;1327;60339;-82
2022/11/05 01:27:38;;;;;;;22.90;15.20;;;;;;;18.37;47.40;100417.09;102028;1329;60528;-82
2022/11/05 01:30:05;;;;;;;21.70;15.40;;;;;;;18.37;47.31;100419.41;101925;1329;61006;-82
2022/11/05 01:32:31;;;;;;;21.30;14.80;;;;;;;18.37;47.33;100420.47;101950;1326;60437;-83
2022/11/05 01:34:56;;;;;;;22.90;14.90;;;;;;;18.37;47.24;100417.80;101966;1326;60466;-82
2022/11/05 01:37:22;;;;;;;28.50;16.30;;;;;;;18.37;47.31;100413.01;101940;1327;60631;-83
2022/11/05 01:39:47;;;;;;;20.70;15.50;;;;;;;18.36;47.29;100414.63;101978;1330;61075;-83
2022/11/05 01:42:21;;;;;;;23.20;14.90;;;;;;;18.37;47.14;100412.48;101928;1330;60517;-82
2022/11/05 01:44:55;;;;;;;21.40;15.30;;;;;;;18.36;47.19;100413.73;101920;1326;60982;-82
2022/11/05 01:47:31;;;;;;;23.00;15.50;;;;;;;18.36;47.22;100412.50;101948;1329;60533;-82
2022/11/05 01:49:58;;;;;;;25.90;15.80;;;;;;;18.36;47.06;100416.60;101895;1332;72645;-81
2022/11/05 01:52:23;;;;;;;22.00;14.90;;;;;;;18.36;47.28;100417.15;101931;1329;74712;-82
2022/11/05 01:54:49;;;;;;;24.10;16.10;;;;;;;18.36;47.25;100417.88;101947;1318;60511;-82
2022/11/05 01:57:15;;;;;;;20.30;15.10;;;;;;;18.36;47.29;100417.34;101949;1330;60522;-82
2022/11/05 01:59:42;;;;;;;22.80;15.70;;;;;;;18.36;47.14;100410.05;101935;1329;60490;-82
2022/11/05 02:02:08;;;;;;;22.70;15.70;;;;;;;18.36;47.20;100410.73;101956;1329;60539;-82
2022/11/05 02:04:37;;;;;;;22.50;15.10;;;;;;;18.36;47.22;100413.05;101965;1328;60529;-83
2022/11/05 02:07:03;;;;;;;22.80;15.10;;;;;;;18.36;47.21;100411.84;102049;1321;60470;-82
2022/11/05 02:09:31;;;;;;;21.50;15.10;;;;;;;18.36;47.19;100411.30;101969;1313;60712;-81
2022/11/05 02:11:57;;;;;;;26.30;16.20;;;;;;;18.36;47.17;100406.66;102016;1326;74750;-82
2022/11/05 02:14:22;;;;;;;23.60;15.40;;;;;;;18.35;47.22;100404.91;101978;1327;60526;-81
2022/11/05 02:17:13;;;;;;;25.30;15.70;;;;;;;18.35;47.24;100404.01;102039;1329;60525;-82
2022/11/05 02:20:00;;;;;;;24.50;16.00;;;;;;;18.35;47.24;100399.73;102066;1326;73796;-82
2022/11/05 02:23:00;;;;;;;22.00;15.90;;;;;;;18.35;47.16;100402.09;102074;1326;73665;-82
2022/11/05 02:25:28;;;;;;;;;;;;;;;18.34;47.12;100402.84;102117;1324;61192;-82
2022/11/05 02:28:19;;;;;;;22.00;15.00;;;;;;;18.32;47.14;100404.40;102099;1326;60500;-82
2022/11/05 02:30:53;;;;;;;23.90;15.90;;;;;;;18.32;47.16;100407.23;102086;1326;73520;-82
2022/11/05 02:33:33;;;;;;;22.40;14.90;;;;;;;18.32;47.29;100407.08;102057;1314;73936;-82
2022/11/05 02:36:07;;;;;;;21.80;15.40;;;;;;;18.32;47.19;100402.96;101962;1329;60429;-82
2022/11/05 02:39:04;;;;;;;22.30;15.30;;;;;;;18.33;47.22;100401.87;102123;1326;60401;-82
2022/11/05 02:41:49;;;;;;;24.30;15.00;;;;;;;18.32;47.17;100408.50;102065;1326;71959;-82
2022/11/05 02:44:30;;;;;;;21.50;15.00;;;;;;;18.33;47.09;100411.52;102071;1326;74598;-83
2022/11/05 02:47:21;;;;;;;20.40;14.70;;;;;;;18.32;47.28;100412.41;102061;1327;61371;-83
2022/11/05 02:50:12;;;;;;;21.40;14.20;;;;;;;18.32;47.20;100420.94;101916;1329;60598;-83
2022/11/05 02:53:01;;;;;;;22.50;14.70;;;;;;;18.32;47.32;100426.64;101937;1329;73572;-82
2022/11/05 02:55:48;;;;;;;24.30;15.60;;;;;;;18.32;47.26;100423.27;101927;1329;74835;-82
2022/11/05 02:58:14;;;;;;;22.70;14.40;;;;;;;18.32;47.17;100424.15;101860;1332;60342;-83
2022/11/05 03:00:42;;;;;;;20.50;14.50;;;;;;;18.33;47.29;100419.65;101965;1329;60582;-83
2022/11/05 03:03:32;;;;;;;23.20;14.60;;;;;;;18.33;47.23;100416.27;102021;1329;71886;-82
2022/11/05 03:05:58;;;;;;;21.80;15.00;;;;;;;18.33;47.35;100419.88;101947;1328;73757;-82
2022/11/05 03:08:50;;;;;;;21.00;13.60;;;;;;;18.33;47.19;100420.54;102066;1326;60608;-82
2022/11/05 03:11:17;;;;;;;21.10;14.00;;;;;;;18.33;47.25;100418.95;102014;1326;60480;-82
2022/11/05 03:13:52;;;;;;;22.40;14.40;;;;;;;18.33;47.26;100410.75;101913;1330;73711;-83
2022/11/05 03:16:21;;;;;;;21.90;13.90;;;;;;;18.33;47.20;100404.48;102102;1326;73782;-82
2022/11/05 03:19:10;;;;;;;21.40;14.10;;;;;;;18.34;47.29;100405.89;101957;1334;60842;-83
2022/11/05 03:21:48;;;;;;;21.70;14.40;;;;;;;18.34;47.27;100406.98;102094;1334;61051;-81
2022/11/05 03:24:16;;;;;;;19.50;13.60;;;;;;;18.34;47.28;100411.23;101932;1330;73602;-82
2022/11/05 03:27:04;;;;;;;21.40;14.80;;;;;;;18.34;47.23;100415.52;101968;1326;73828;-82
2022/11/05 03:29:43;;;;;;;23.60;14.50;;;;;;;18.33;47.13;100413.23;102036;1329;61262;-84
2022/11/05 03:32:09;;;;;;;;;;;;;;;18.33;47.39;100406.98;101959;1327;61117;-83
2022/11/05 03:35:02;;;;;;;20.40;12.90;;;;;;;18.32;47.28;100406.05;102039;1331;60621;-83
2022/11/05 03:37:31;;;;;;;20.30;13.90;;;;;;;18.32;47.29;100407.27;101703;1335;74796;-81
2022/11/05 03:39:57;;;;;;;20.10;12.90;;;;;;;18.32;47.29;100404.20;101736;1339;61206;-82
2022/11/05 03:42:25;;;;;;;20.50;12.90;;;;;;;18.32;47.29;100410.64;101632;1342;61418;-82
2022/11/05 03:44:52;;;;;;;22.00;13.20;;;;;;;18.33;47.28;100412.56;101660;1343;72773;-81
2022/11/05 03:47:20;;;;;;;21.30;13.60;;;;;;;18.32;47.24;100401.38;101625;1344;74828;-83
2022/11/05 03:49:57;;;;;;;19.10;14.00;;;;;;;18.33;47.31;100401.67;101669;1333;60524;-82
2022/11/05 03:52:24;;;;;;;19.90;13.50;;;;;;;18.33;47.23;100395.63;101693;1335;60616;-82
2022/11/05 03:54:50;;;;;;;19.20;13.00;;;;;;;18.33;47.33;100394.75;101709;1342;73551;-82
2022/11/05 03:57:21;;;;;;;19.30;13.10;;;;;;;18.33;47.29;100398.65;101596;1342;60652;-82
2022/11/05 03:59:48;;;;;;;19.10;12.70;;;;;;;18.33;47.33;100402.21;101716;1335;61358;-82
2022/11/05 04:02:14;;;;;;;18.80;13.60;;;;;;;18.33;47.41;100406.12;101673;1336;60546;-82
2022/11/05 04:05:05;;;;;;;21.60;13.10;;;;;;;18.33;47.28;100408.83;101612;1337;60641;-82
2022/11/05 04:18:28;;;;;;;19.80;12.70;;;;;;;18.32;47.32;100426.14;101721;1342;73823;-82
2022/11/05 04:26:22;;;;;;;18.20;13.00;;;;;;;18.32;47.32;100417.41;101771;1333;72619;-83
2022/11/05 04:31:33;;;;;;;19.40;13.20;;;;;;;18.32;47.34;100419.19;101729;1336;60425;-82
2022/11/05 04:33:59;;;;;;;19.70;13.10;;;;;;;18.32;47.47;100420.81;101732;1339;60722;-82
2022/11/05 04:36:24;;;;;;;18.30;12.50;;;;;;;18.32;47.38;100424.75;101692;1335;60501;-82
2022/11/05 04:38:50;;;;;;;20.30;12.10;;;;;;;18.31;47.34;100433.66;101722;1341;60560;-82
2022/11/05 04:41:15;;;;;;;19.60;12.00;;;;;;;18.32;47.32;100435.77;101752;1337;60671;-82
2022/11/05 04:43:41;;;;;;;17.40;12.70;;;;;;;18.32;47.46;100436.48;101675;1334;60425;-82
2022/11/05 04:46:07;;;;;;;20.20;12.80;;;;;;;18.32;47.45;100429.70;101955;1329;60492;-83
2022/11/05 04:48:32;;;;;;;17.10;11.70;;;;;;;18.32;47.34;100424.57;101959;1328;60512;-82
2022/11/05 04:50:58;;;;;;;16.20;12.50;;;;;;;18.32;47.37;100419.72;101962;1329;61847;-82
2022/11/05 04:53:23;;;;;;;18.40;12.50;;;;;;;18.32;47.51;100415.80;101967;1326;60525;-82
2022/11/05 04:55:49;;;;;;;17.40;11.80;;;;;;;18.32;47.43;100411.55;102005;1323;60627;-82
2022/11/05 04:58:14;;;;;;;16.90;11.90;;;;;;;18.32;47.42;100409.93;101904;1330;60486;-82
2022/11/05 05:00:40;;;;;;;22.40;13.40;;;;;;;18.32;47.31;100409.06;101948;1332;60518;-82
2022/11/05 05:03:05;;;;;;;19.70;12.50;;;;;;;18.31;47.42;100418.36;101957;1333;60496;-82
2022/11/05 05:05:31;;;;;;;16.70;11.90;;;;;;;18.32;47.50;100430.61;101953;1332;60572;-82
2022/11/05 05:08:01;;;;;;;17.60;12.00;;;;;;;18.32;47.44;100436.67;101974;1326;60614;-82
2022/11/05 05:10:26;;;;;;;17.60;12.50;;;;;;;18.32;47.31;100433.63;101965;1329;60979;-83
2022/11/05 05:12:52;;;;;;;18.50;11.90;;;;;;;18.32;47.55;100428.12;101934;1333;60483;-82
2022/11/05 05:15:17;;;;;;;16.80;12.10;;;;;;;18.32;47.59;100423.30;101942;1329;62095;-82
2022/11/05 05:17:43;;;;;;;17.90;12.10;;;;;;;18.31;47.48;100421.39;101966;1332;60595;-83
2022/11/05 05:22:53;;;;;;;17.00;11.80;;;;;;;18.31;47.51;100425.47;101960;1329;60355;-82
2022/11/05 05:25:18;;;;;;;17.40;12.00;;;;;;;18.31;47.37;100427.27;102050;1323;60585;-82
2022/11/05 05:27:44;;;;;;;17.40;11.90;;;;;;;18.32;47.41;100438.11;101936;1329;60514;-82
2022/11/05 05:30:10;;;;;;;19.30;12.40;;;;;;;18.32;47.46;100446.45;101974;1326;60609;-82
2022/11/05 05:32:35;;;;;;;16.40;11.80;;;;;;;18.32;47.50;100450.73;102036;1330;60573;-83
2022/11/05 05:35:01;;;;;;;16.30;11.60;;;;;;;18.32;47.50;100455.55;101981;1322;60537;-83
2022/11/05 05:37:27;;;;;;;18.30;12.10;;;;;;;18.32;47.46;100453.92;101957;1330;73522;-83
2022/11/05 05:39:52;;;;;;;16.80;11.50;;;;;;;18.32;47.59;100456.07;101931;1333;60716;-83
2022/11/05 05:42:20;;;;;;;16.80;11.80;;;;;;;18.33;47.51;100457.66;101963;1326;60539;-83
2022/11/05 05:44:47;;;;;;;17.10;11.40;;;;;;;18.33;47.55;100463.52;101957;1329;60570;-83
2022/11/05 05:47:13;;;;;;;18.60;12.00;;;;;;;18.33;47.50;100470.64;101957;1330;73611;-81
2022/11/05 05:49:40;;;;;;;16.50;10.80;;;;;;;18.33;47.47;100475.97;101935;1326;1663112;-81
2022/11/05 05:52:06;;;;;;;18.00;12.20;;;;;;;18.33;47.44;100480.42;101973;1328;60402;-82
2022/11/05 05:54:32;;;;;;;16.60;11.30;;;;;;;18.33;47.54;100484.87;102065;1324;60522;-82
2022/11/05 05:56:57;;;;;;;18.30;11.60;;;;;;;18.33;47.48;100493.44;101940;1323;60480;-82
2022/11/05 05:59:23;;;;;;;19.10;11.80;;;;;;;18.33;47.54;100494.11;102107;1326;60472;-82
2022/11/05 06:01:48;;;;;;;16.40;11.50;;;;;;;18.34;47.51;100495.34;101984;1326;60568;-82
2022/11/05 06:04:14;;;;;;;16.30;11.40;;;;;;;18.33;47.39;100498.06;101973;1329;60559;-82
2022/11/05 06:06:39;;;;;;;14.70;11.20;;;;;;;18.34;47.49;100497.29;101941;1327;60547;-83
2022/11/05 06:09:05;;;;;;;15.80;11.60;;;;;;;18.34;47.55;100496.39;102037;1326;61269;-83
2022/11/05 06:11:31;;;;;;;17.40;11.10;;;;;;;18.33;47.65;100500.89;101957;1328;60567;-82
2022/11/05 06:13:56;;;;;;;17.30;12.00;;;;;;;18.34;47.58;100503.02;101994;1329;60524;-82
2022/11/05 06:16:22;;;;;;;17.00;11.80;;;;;;;18.34;47.54;100504.25;101993;1329;60487;-82
2022/11/05 06:18:47;;;;;;;18.20;12.00;;;;;;;18.34;47.63;100503.52;101932;1333;60500;-82
2022/11/05 06:21:14;;;;;;;21.60;13.10;;;;;;;18.34;47.55;100511.17;102065;1330;60558;-82
2022/11/05 06:23:41;;;;;;;18.10;11.70;;;;;;;18.34;47.51;100519.19;102076;1333;60477;-82
2022/11/05 06:26:09;;;;;;;16.90;11.70;;;;;;;18.34;47.67;100529.52;101980;1327;60820;-82
2022/11/05 06:28:34;;;;;;;16.70;12.10;;;;;;;18.34;47.63;100533.06;102133;1326;61214;-82
2022/11/05 06:31:00;;;;;;;19.70;12.40;;;;;;;18.34;47.58;100530.40;101973;1331;60526;-82
2022/11/05 06:33:26;;;;;;;17.80;12.10;;;;;;;18.35;47.54;100523.98;101950;1332;60513;-82
2022/11/05 06:35:52;;;;;;;17.30;12.00;;;;;;;18.34;47.70;100521.11;101943;1329;60464;-82
2022/11/05 06:38:17;;;;;;;16.20;11.60;;;;;;;18.35;47.67;100519.87;101893;1323;61004;-82
2022/11/05 06:40:43;;;;;;;19.00;12.30;;;;;;;18.34;47.68;100522.91;102012;1321;60582;-82
2022/11/05 06:43:09;;;;;;;17.50;11.90;;;;;;;18.34;47.66;100529.34;101959;1330;73686;-82
2022/11/05 06:45:34;;;;;;;18.40;11.80;;;;;;;18.35;47.60;100532.34;101985;1326;60519;-82
2022/11/05 06:48:00;;;;;;;15.50;11.90;;;;;;;18.35;47.69;100528.95;101942;1330;60526;-82
2022/11/05 06:50:26;;;;;;;17.50;12.40;;;;;;;18.34;47.73;100523.10;101959;1328;60707;-82
2022/11/05 06:52:56;;;;;;;18.70;12.40;;;;;;;18.34;47.62;100521.66;101979;1329;60639;-82
2022/11/05 06:55:22;;;;;;;23.60;12.40;;;;;;;18.34;47.71;100514.57;101999;1329;73768;-82
2022/11/05 06:57:47;;;;;;;19.20;12.20;;;;;;;18.34;47.75;100515.24;101946;1330;60528;-82
2022/11/05 07:00:13;;;;;;;18.50;12.80;;;;;;;18.34;47.75;100511.68;101939;1326;60518;-81
2022/11/05 07:02:39;;;;;;;20.10;12.70;;;;;;;18.34;47.58;100516.14;101942;1326;60628;-81
2022/11/05 07:05:06;;;;;;;19.20;12.60;;;;;;;18.34;47.68;100524.51;102058;1327;60645;-81
2022/11/05 07:07:32;;;;;;;20.00;12.70;;;;;;;18.34;47.68;100522.73;102039;1329;60582;-82
2022/11/05 07:09:57;;;;;;;21.20;12.80;;;;;;;18.34;47.79;100524.69;101956;1329;60485;-82
2022/11/05 07:12:23;;;;;;;17.50;12.50;;;;;;;18.34;47.78;100520.11;102070;1327;61001;-81
2022/11/05 07:14:50;;;;;;;17.00;12.60;;;;;;;18.34;47.76;100520.59;101953;1329;73491;-81
2022/11/05 07:17:17;;;;;;;22.00;13.10;;;;;;;18.35;47.91;100517.71;101956;1329;74776;-82
2022/11/05 07:19:43;;;;;;;22.20;12.70;;;;;;;18.34;47.75;100513.65;101969;1326;60541;-82
2022/11/05 07:22:08;;;;;;;19.10;13.30;;;;;;;18.34;47.68;100522.02;101971;1329;60549;-83
2022/11/05 07:24:34;;;;;;;19.10;12.90;;;;;;;18.34;47.70;100519.35;101880;1330;60511;-82
2022/11/05 07:26:59;;;;;;;20.80;13.20;;;;;;;18.34;47.81;100522.73;101969;1330;60495;-82
2022/11/05 07:29:25;;;;;;;18.70;13.60;;;;;;;18.34;47.82;100515.78;101971;1334;60636;-83
2022/11/05 07:31:50;;;;;;;22.10;13.90;;;;;;;18.34;47.82;100516.48;102053;1329;60390;-83
2022/11/05 07:34:16;;;;;;;22.80;13.70;;;;;;;18.34;47.86;100512.23;101951;1333;60567;-82
2022/11/05 07:36:41;;;;;;;19.70;12.80;;;;;;;18.34;47.93;100509.37;102014;1326;60604;-82
2022/11/05 07:39:07;;;;;;;23.00;12.80;;;;;;;18.34;47.97;100509.75;101953;1329;60488;-82
2022/11/05 07:41:33;;;;;;;24.00;13.40;;;;;;;18.34;47.86;100512.92;101954;1319;60596;-82
2022/11/05 07:44:02;;;;;;;21.60;13.10;;;;;;;18.33;47.89;100513.17;101988;1334;60554;-83
2022/11/05 07:46:27;;;;;;;21.50;13.80;;;;;;;18.34;47.98;100515.63;101983;1326;60364;-82
2022/11/05 07:48:53;;;;;;;22.40;13.50;;;;;;;18.34;47.92;100513.15;101947;1329;60550;-82
2022/11/05 07:51:18;;;;;;;22.70;13.70;;;;;;;18.34;47.95;100511.73;102044;1329;60577;-82
2022/11/05 07:53:45;;;;;;;20.50;13.40;;;;;;;18.34;48.06;100513.32;101969;1329;60534;-83
2022/11/05 07:56:11;;;;;;;22.70;13.80;;;;;;;18.34;47.97;100514.73;101957;1329;60482;-82
2022/11/05 07:58:37;;;;;;;19.60;13.10;;;;;;;18.34;47.94;100520.08;101967;1328;60513;-82
2022/11/05 08:01:03;;;;;;;22.40;13.80;;;;;;;18.34;48.18;100517.95;102004;1321;60621;-82
2022/11/05 08:03:28;;;;;;;22.20;14.20;;;;;;;18.34;47.97;100514.55;101944;1326;73569;-82
2022/11/05 08:05:54;;;;;;;23.10;14.20;;;;;;;18.35;48.05;100516.64;102037;1327;59319;-82
2022/11/05 08:08:19;;;;;;;20.80;13.20;;;;;;;18.35;48.11;100522.16;101905;1329;60735;-82
2022/11/05 08:10:45;;;;;;;24.00;16.00;;;;;;;18.35;48.06;100522.52;101939;1333;60317;-83
2022/11/05 08:13:11;;;;;;;25.00;15.30;;;;;;;18.35;48.06;100517.73;101882;1326;60480;-83
2022/11/05 08:15:37;;;;;;;24.60;14.60;;;;;;;18.35;48.14;100513.97;102112;1327;60512;-82
2022/11/05 08:18:05;;;;;;;25.40;15.40;;;;;;;18.35;48.13;100510.73;101956;1330;60387;-82
2022/11/05 08:20:31;;;;;;;25.80;15.80;;;;;;;18.35;48.00;100513.25;102003;1327;61342;-82
2022/11/05 08:22:56;;;;;;;21.80;14.60;;;;;;;18.35;48.14;100515.73;101850;1334;61400;-83
2022/11/05 08:25:22;;;;;;;28.00;16.00;;;;;;;18.35;48.08;100522.66;101895;1326;60583;-82
2022/11/05 08:27:55;;;;;;;24.60;15.00;;;;;;;18.36;48.20;100518.34;101929;1334;60834;-83
2022/11/05 08:30:21;;;;;;;23.50;14.70;;;;;;;18.36;48.16;100517.61;101934;1329;60797;-82
2022/11/05 08:32:46;;;;;;;22.10;15.40;;;;;;;18.37;48.33;100514.73;102010;1329;60965;-82
2022/11/05 08:35:12;;;;;;;22.90;15.00;;;;;;;18.37;48.25;100512.21;101930;1326;60488;-82
2022/11/05 08:37:38;;;;;;;22.10;15.00;;;;;;;18.37;48.30;100507.40;101936;1327;60548;-82
2022/11/05 08:40:04;;;;;;;24.20;15.00;;;;;;;18.37;48.28;100503.66;101973;1320;60583;-82
2022/11/05 08:42:29;;;;;;;28.20;16.40;;;;;;;18.38;48.23;100497.71;102004;1322;60435;-82
2022/11/05 08:44:55;;;;;;;23.30;15.20;;;;;;;18.38;48.40;100493.98;102163;1330;72939;-82
2022/11/05 08:47:21;;;;;;;23.40;15.60;;;;;;;18.38;48.30;100492.89;102037;1329;60535;-82
2022/11/05 08:49:46;;;;;;;24.10;15.60;;;;;;;18.39;48.26;100493.23;101953;1327;59514;-82
2022/11/05 08:52:12;;;;;;;22.60;15.30;;;;;;;18.38;48.24;100488.27;101974;1327;60580;-83
2022/11/05 08:54:37;;;;;;;25.60;16.50;;;;;;;18.39;48.25;100486.43;102049;1329;60601;-83
2022/11/05 08:57:03;;;;;;;25.80;16.80;;;;;;;18.39;48.40;100489.13;102002;1329;60592;-82
2022/11/05 08:59:30;;;;;;;25.30;15.70;;;;;;;18.40;48.29;100484.07;101910;1326;60663;-82
2022/11/05 09:01:56;;;;;;;24.20;15.60;;;;;;;18.39;48.42;100485.00;101998;1329;60493;-82
2022/11/05 09:04:21;;;;;;;24.60;15.60;;;;;;;18.40;48.41;100487.63;101935;1329;60515;-82
2022/11/05 09:06:47;;;;;;;24.70;16.00;;;;;;;18.40;48.42;100489.41;102127;1324;60454;-82
2022/11/05 09:09:12;;;;;;;25.40;15.80;;;;;;;18.40;48.47;100496.52;101950;1328;60546;-83
2022/11/05 09:11:38;;;;;;;23.90;16.30;;;;;;;18.40;48.40;100494.90;101958;1320;60515;-82
2022/11/05 09:14:04;;;;;;;26.30;17.70;;;;;;;18.40;48.38;100498.29;101991;1327;60480;-83
2022/11/05 09:16:33;;;;;;;23.00;16.00;;;;;;;18.41;48.42;100498.08;101970;1333;60498;-82
2022/11/05 09:18:59;;;;;;;26.90;17.40;;;;;;;18.41;48.42;100501.80;102032;1329;73798;-82
2022/11/05 09:21:24;;;;;;;25.40;17.00;;;;;;;18.41;48.52;100495.73;102062;1330;60507;-82
2022/11/05 09:23:50;;;;;;;24.50;16.30;;;;;;;18.41;48.52;100498.39;102112;1326;60554;-82
2022/11/05 09:26:15;;;;;;;28.50;17.60;;;;;;;18.41;48.41;100493.94;101965;1325;60473;-82
2022/11/05 09:28:42;;;;;;;25.10;16.60;;;;;;;18.41;48.49;100491.62;101977;1329;60463;-82
2022/11/05 09:31:09;;;;;;;28.40;17.70;;;;;;;18.41;48.55;100490.75;101958;1326;60472;-82
2022/11/05 09:33:36;;;;;;;28.70;18.80;;;;;;;18.42;48.69;100496.02;101964;1328;60508;-82
2022/11/05 09:36:01;;;;;;;26.60;18.20;;;;;;;18.42;48.54;100498.36;102074;1329;60571;-82
2022/11/05 09:38:27;;;;;;;27.70;18.10;;;;;;;18.42;48.66;100498.34;102032;1328;60605;-82
2022/11/05 09:41:00;;;;;;;27.40;17.70;;;;;;;18.43;48.72;100495.27;102127;1326;60546;-82
2022/11/05 09:43:33;;;;;;;28.10;18.80;;;;;;;18.42;48.71;100492.61;101965;1329;74783;-82
2022/11/05 09:46:02;;;;;;;31.30;19.00;;;;;;;18.42;48.67;100493.31;101961;1331;61096;-83
2022/11/05 09:48:28;;;;;;;;;;;;;;;18.43;48.66;100493.30;102071;1327;60549;-82
2022/11/05 09:50:54;;;;;;;27.80;18.90;;;;;;;18.42;48.82;100493.91;102018;1327;60479;-83
2022/11/05 09:53:20;;;;;;;31.50;19.00;;;;;;;18.42;48.87;100490.67;101952;1329;60593;-83
2022/11/05 09:55:48;;;;;;;31.40;19.20;;;;;;;18.42;48.81;100496.02;101980;1329;60456;-83
2022/11/05 09:58:18;;;;;;;28.70;19.30;;;;;;;18.43;48.76;100492.08;101972;1333;60612;-82
2022/11/05 10:00:44;;;;;;;29.20;18.50;;;;;;;18.43;48.79;100492.44;101933;1332;72784;-83
2022/11/05 10:03:12;;;;;;;30.50;19.90;;;;;;;18.43;48.87;100488.85;101946;1329;60516;-82
2022/11/05 10:05:37;;;;;;;28.90;19.40;;;;;;;18.43;48.99;100485.98;101993;1333;60358;-82
2022/11/05 10:08:15;;;;;;;29.60;19.00;;;;;;;18.44;48.98;100486.66;101994;1332;60586;-83
2022/11/05 10:10:48;;;;;;;30.10;19.90;;;;;;;18.44;48.86;100486.50;101945;1332;73618;-81
2022/11/05 10:13:32;;;;;;;29.50;19.60;;;;;;;18.44;49.02;100486.66;102092;1327;74209;-82
2022/11/05 10:16:01;;;;;;;32.20;20.70;;;;;;;18.44;48.96;100481.11;102165;1326;61259;-82
2022/11/05 10:18:31;;;;;;;36.50;21.20;;;;;;;18.44;48.95;100478.42;102083;1323;60518;-82
2022/11/05 10:20:57;;;;;;;35.60;20.80;;;;;;;18.45;49.02;100482.16;101929;1321;71488;-81
2022/11/05 10:23:24;;;;;;;32.10;20.70;;;;;;;18.44;49.01;100477.35;101823;1327;61227;-81
2022/11/05 10:26:06;;;;;;;31.70;20.90;;;;;;;18.46;49.19;100479.09;101865;1327;60462;-82
2022/11/05 10:28:32;;;;;;;32.40;20.10;;;;;;;18.45;49.13;100479.27;101932;1333;60444;-83
2022/11/05 10:31:00;;;;;;;33.20;20.20;;;;;;;18.46;49.19;100480.81;101866;1334;60581;-82
2022/11/05 10:33:42;;;;;;;30.50;21.10;;;;;;;18.47;49.12;100479.02;102002;1332;74687;-82
2022/11/05 10:36:24;;;;;;;27.60;19.70;;;;;;;18.47;49.26;100476.30;101946;1333;60540;-82
2022/11/05 10:38:50;;;;;;;28.50;19.70;;;;;;;18.47;49.04;100470.59;101920;1322;60534;-83
2022/11/05 10:41:31;;;;;;;31.90;20.10;;;;;;;18.48;49.08;100476.62;102048;1329;60509;-83
2022/11/05 10:44:18;;;;;;;30.70;19.30;;;;;;;18.47;49.23;100476.64;101862;1328;74393;-82
2022/11/05 10:47:06;;;;;;;28.40;19.40;;;;;;;18.48;49.22;100475.90;101930;1329;60374;-82
2022/11/05 10:49:41;;;;;;;29.30;19.80;;;;;;;18.48;49.24;100476.09;102024;1326;60518;-82
2022/11/05 10:52:34;;;;;;;31.50;19.80;;;;;;;18.48;49.19;100467.89;102029;1327;73526;-82
2022/11/05 10:55:03;;;;;;;32.50;20.30;;;;;;;18.48;49.28;100470.88;101979;1326;73930;-83
2022/11/05 10:57:28;;;;;;;33.40;21.40;;;;;;;18.48;49.17;100470.70;101836;1334;61003;-81
2022/11/05 11:00:14;;;;;;;27.40;19.60;;;;;;;18.48;49.40;100462.85;102023;1327;61074;-83
2022/11/05 11:02:48;;;;;;;29.10;20.20;;;;;;;18.49;49.28;100460.35;101990;1328;73417;-83
2022/11/05 11:05:36;;;;;;;30.40;20.40;;;;;;;18.49;49.39;100459.77;101961;1329;73635;-83
2022/11/05 11:08:07;;;;;;;30.70;20.80;;;;;;;18.49;49.43;100456.23;102007;1329;60525;-82
2022/11/05 11:10:40;;;;;;;28.40;19.00;;;;;;;18.50;49.42;100462.05;102096;1326;60397;-82
2022/11/05 11:13:17;;;;;;;27.50;18.80;;;;;;;18.50;49.34;100462.42;102025;1328;74109;-82
2022/11/05 11:15:44;;;;;;;32.00;20.10;;;;;;;18.49;49.49;100452.45;101817;1329;74700;-82
2022/11/05 11:18:29;;;;;;;29.00;20.20;;;;;;;18.50;49.50;100452.40;101922;1329;61317;-83
2022/11/05 11:21:04;;;;;;;32.80;20.50;;;;;;;18.50;49.38;100451.32;101984;1334;60466;-82
2022/11/05 11:23:35;;;;;;;29.10;19.20;;;;;;;18.51;49.52;100448.09;101939;1323;72626;-82
2022/11/05 11:26:01;;;;;;;28.30;20.70;;;;;;;18.50;49.54;100448.30;102107;1326;73882;-82
2022/11/05 11:28:31;;;;;;;28.90;20.20;;;;;;;18.51;49.55;100447.73;101956;1329;60593;-82
2022/11/05 11:31:22;;;;;;;31.50;19.70;;;;;;;18.51;49.55;100446.30;102055;1334;60369;-81
2022/11/05 11:33:55;;;;;;;29.40;18.80;;;;;;;18.50;49.71;100442.77;102135;1323;72335;-82
2022/11/05 11:36:24;;;;;;;28.30;19.20;;;;;;;18.50;49.56;100442.39;101980;1334;74367;-83
2022/11/05 11:38:50;;;;;;;29.70;20.20;;;;;;;18.50;49.54;100439.73;101976;1326;60504;-81
2022/11/05 11:41:23;;;;;;;30.00;20.20;;;;;;;18.50;49.48;100435.10;101956;1327;60593;-81
2022/11/05 11:43:51;;;;;;;29.70;20.60;;;;;;;18.51;49.64;100434.89;102051;1332;72847;-82
2022/11/05 11:46:18;;;;;;;27.20;19.10;;;;;;;18.51;49.60;100432.41;102042;1326;73850;-81
2022/11/05 11:48:46;;;;;;;30.20;19.70;;;;;;;18.51;49.63;100435.42;101995;1332;60457;-83
2022/11/05 11:51:29;;;;;;;29.40;18.80;;;;;;;18.51;49.66;100432.58;102015;1329;60415;-82
2022/11/05 11:53:56;;;;;;;30.90;19.60;;;;;;;18.51;49.82;100435.79;102049;1330;73485;-83
2022/11/05 11:56:22;;;;;;;26.90;19.30;;;;;;;18.51;49.75;100432.94;102059;1332;73672;-81